HomeShort term forecast

Short term forecast

Graphical weather forecast for the next 48 hours for Montreal:

Short term forecast

This weather forecast is automatically refreshed every 3 hours.

Hourly Experimental Forecast for the next 48 hours

Overall summary: Partly cloudy throughout the day.

 Date & Hour   Temp   Feel   Baro   Hum   Speed & Bearing   Wind Gust   Precip.%   Precip.   Visibility   Cloud cover   Conditions 
 23/09/2020 - 11:00  17.3°C  17.3°C  1008.9 hPa  73%  13.1 km/h   20.8 km/h  2%  0.01 mm/h  16.1km  46%  Partly Cloudy 
 23/09/2020 - 12:00  19.3°C  19.3°C  1008.4 hPa  68%  15.4 km/h   23.3 km/h  0%  --  16.1km  36%  Partly Cloudy 
 23/09/2020 - 13:00  21.2°C  21.2°C  1008.0 hPa  63%  17.8 km/h   26.2 km/h  2%  0.01 mm/h  16.1km  22%  Clear 
 23/09/2020 - 14:00  22.4°C  22.4°C  1007.7 hPa  60%  19.9 km/h   27.1 km/h  2%  0.02 mm/h  16.1km  12%  Clear 
 23/09/2020 - 15:00  22.9°C  22.9°C  1007.6 hPa  58%  21.0 km/h   29.0 km/h  2%  0.04 mm/h  16.1km  11%  Clear 
 23/09/2020 - 16:00  22.6°C  22.6°C  1008.0 hPa  58%  21.3 km/h   30.3 km/h  2%  0.02 mm/h  16.1km  10%  Clear 
 23/09/2020 - 17:00  21.9°C  21.9°C  1008.3 hPa  59%  20.7 km/h   31.2 km/h  2%  0.05 mm/h  16.1km  10%  Clear 
 23/09/2020 - 18:00  20.7°C  20.7°C  1008.8 hPa  63%  18.3 km/h   31.6 km/h  2%  0.03 mm/h  16.1km  7%  Clear 
 23/09/2020 - 19:00  19.2°C  19.2°C  1009.5 hPa  68%  13.8 km/h   27.7 km/h  2%  0.01 mm/h  16.1km  10%  Clear 
 23/09/2020 - 20:00  18.2°C  18.2°C  1009.8 hPa  71%  13.0 km/h   34.3 km/h  4%  0.04 mm/h  16.1km  13%  Clear 
 23/09/2020 - 21:00  17.0°C  17.0°C  1010.5 hPa  76%  10.9 km/h   27.8 km/h  0%  --  16.1km  2%  Clear 
 23/09/2020 - 22:00  16.1°C  16.1°C  1010.7 hPa  79%  10.4 km/h   24.1 km/h  3%  0.03 mm/h  16.1km  1%  Clear 
 23/09/2020 - 23:00  15.2°C  15.2°C  1011.1 hPa  80%  9.9 km/h   21.6 km/h  3%  0.03 mm/h  16.1km  0%  Clear 
 24/09/2020 - 00:00  14.4°C  14.4°C  1011.5 hPa  82%  9.2 km/h   18.1 km/h  4%  0.02 mm/h  16.1km  0%  Clear 
 24/09/2020 - 01:00  13.6°C  13.6°C  1011.7 hPa  85%  8.7 km/h   14.7 km/h  0%  --  16.1km  1%  Clear 
 24/09/2020 - 02:00  13.0°C  13.0°C  1011.9 hPa  87%  8.3 km/h   12.4 km/h  0%  --  16.1km  4%  Clear 
 24/09/2020 - 03:00  12.5°C  12.5°C  1011.8 hPa  89%  8.8 km/h   12.7 km/h  0%  --  16.1km  12%  Clear 
 24/09/2020 - 04:00  11.8°C  11.8°C  1011.7 hPa  91%  9.7 km/h   14.5 km/h  0%  --  16.1km  22%  Clear 
 24/09/2020 - 05:00  11.3°C  11.3°C  1011.7 hPa  93%  10.6 km/h   16.7 km/h  0%  --  16.1km  30%  Clear 
 24/09/2020 - 06:00  11.2°C  11.2°C  1012.1 hPa  95%  11.4 km/h   19.3 km/h  0%  --  16.1km  35%  Partly Cloudy 
 24/09/2020 - 07:00  11.4°C  11.4°C  1012.7 hPa  98%  12.2 km/h   22.1 km/h  0%  --  16.1km  38%  Partly Cloudy 
 24/09/2020 - 08:00  12.1°C  12.1°C  1013.3 hPa  99%  12.7 km/h   24.2 km/h  0%  --  16.1km  42%  Partly Cloudy 
 24/09/2020 - 09:00  13.5°C  13.5°C  1013.5 hPa  94%  12.9 km/h   24.9 km/h  3%  0.01 mm/h  16.1km  49%  Partly Cloudy 
 24/09/2020 - 10:00  15.2°C  15.2°C  1013.5 hPa  88%  12.8 km/h   24.8 km/h  4%  0.02 mm/h  16.1km  56%  Partly Cloudy 
 24/09/2020 - 11:00  16.7°C  16.7°C  1013.4 hPa  84%  12.8 km/h   24.1 km/h  5%  0.04 mm/h  16.1km  62%  Mostly Cloudy 
 24/09/2020 - 12:00  17.8°C  17.8°C  1013.5 hPa  80%  13.1 km/h   22.8 km/h  4%  0.03 mm/h  16.1km  63%  Mostly Cloudy 
 24/09/2020 - 13:00  18.6°C  18.6°C  1013.7 hPa  75%  13.5 km/h   20.9 km/h  2%  0.01 mm/h  16.1km  63%  Mostly Cloudy 
 24/09/2020 - 14:00  19.6°C  19.6°C  1013.5 hPa  71%  13.6 km/h   19.0 km/h  0%  --  16.1km  62%  Mostly Cloudy 
 24/09/2020 - 15:00  20.5°C  20.5°C  1013.5 hPa  68%  13.1 km/h   17.0 km/h  0%  --  16.1km  64%  Mostly Cloudy 
 24/09/2020 - 16:00  21.0°C  21.0°C  1013.4 hPa  65%  12.3 km/h   15.0 km/h  0%  --  16.1km  67%  Mostly Cloudy 
 24/09/2020 - 17:00  20.9°C  20.9°C  1013.6 hPa  64%  11.4 km/h   13.2 km/h  0%  --  16.1km  67%  Mostly Cloudy 
 24/09/2020 - 18:00  19.8°C  19.8°C  1014.1 hPa  67%  9.9 km/h   11.6 km/h  0%  --  16.1km  62%  Mostly Cloudy 
 24/09/2020 - 19:00  18.0°C  18.0°C  1014.8 hPa  73%  8.3 km/h   10.5 km/h  0%  --  16.1km  55%  Partly Cloudy 
 24/09/2020 - 20:00  16.7°C  16.7°C  1015.4 hPa  76%  7.3 km/h   10.1 km/h  1%  0.01 mm/h  16.1km  52%  Partly Cloudy 
 24/09/2020 - 21:00  15.8°C  15.8°C  1015.8 hPa  75%  8.0 km/h   11.2 km/h  1%  0.01 mm/h  16.1km  58%  Partly Cloudy 
 24/09/2020 - 22:00  15.1°C  15.1°C  1016.3 hPa  73%  9.6 km/h   13.1 km/h  0%  --  16.1km  68%  Mostly Cloudy 
 24/09/2020 - 23:00  14.5°C  14.5°C  1016.5 hPa  71%  10.8 km/h   14.4 km/h  0%  --  16.1km  77%  Mostly Cloudy 
 25/09/2020 - 00:00  13.9°C  13.9°C  1016.6 hPa  69%  11.0 km/h   14.1 km/h  0%  --  16.1km  83%  Mostly Cloudy 
 25/09/2020 - 01:00  13.4°C  13.4°C  1016.4 hPa  66%  11.0 km/h   13.2 km/h  2%  0.01 mm/h  16.1km  88%  Overcast 
 25/09/2020 - 02:00  13.0°C  13.0°C  1016.5 hPa  64%  10.9 km/h   12.6 km/h  2%  0.01 mm/h  16.1km  91%  Overcast 
 25/09/2020 - 03:00  12.4°C  12.4°C  1016.6 hPa  65%  10.8 km/h   12.6 km/h  0%  --  16.1km  91%  Overcast 
 25/09/2020 - 04:00  11.6°C  11.6°C  1016.5 hPa  67%  10.8 km/h   12.9 km/h  0%  --  16.1km  91%  Overcast 
 25/09/2020 - 05:00  10.9°C  10.9°C  1016.7 hPa  70%  10.7 km/h   13.1 km/h  0%  --  16.1km  90%  Overcast 
 25/09/2020 - 06:00  10.6°C  10.6°C  1017.1 hPa  71%  10.7 km/h   12.8 km/h  0%  --  16.1km  88%  Overcast 
 25/09/2020 - 07:00  10.3°C  10.3°C  1018.0 hPa  73%  10.7 km/h   12.5 km/h  0%  --  16.1km  85%  Mostly Cloudy 
 25/09/2020 - 08:00  10.6°C  10.6°C  1018.5 hPa  74%  10.5 km/h   12.1 km/h  3%  0.01 mm/h  16.1km  83%  Mostly Cloudy 
 25/09/2020 - 09:00  11.2°C  11.2°C  1018.5 hPa  74%  10.1 km/h   11.9 km/h  3%  0.01 mm/h  16.1km  79%  Mostly Cloudy 
 25/09/2020 - 10:00  12.1°C  12.1°C  1018.3 hPa  73%  9.4 km/h   11.6 km/h  3%  0.01 mm/h  16.1km  75%  Mostly Cloudy 

 

Past weather and reports

Past weatherFind in this section the past weather conditions, weather archive, graphics, reports and statistics.

Current conditions

Current weather condition for MontrealAll you need to know about the current weather conditions for Montreal. Weather data is updated every 10 minutes.

Weather forecast

Current Montreal weatherSince 2004, celinium.com website has provided accurate weather forecast for Montreal's island.